MDT,Max TemperatureF,Mean TemperatureF,Min TemperatureF,Max Dew PointF,MeanDew PointF,Min DewpointF,Max Humidity, Mean Humidity, Min Humidity, Max Sea Level PressureIn, Mean Sea Level PressureIn, Min Sea Level PressureIn, Max VisibilityMiles, Mean VisibilityMiles, Min VisibilityMiles, Max Wind SpeedMPH, Mean Wind SpeedMPH, Max Gust SpeedMPH,PrecipitationIn, CloudCover, Events, WindDirDegrees
2012-10-1,69,58,44,45,38,34,76,49,27,30.35,30.25,30.17,10,10,3,20,9,26,0.00,2,,24
2012-10-2,84,60,37,46,35,28,81,51,13,30.16,29.98,29.87,10,10,8,9,3,,0.00,0,,230
2012-10-3,84,62,41,39,31,21,76,44,10,30.37,29.98,29.84,10,10,9,38,9,48,0.00,1,,314
2012-10-4,46,40,35,25,23,21,60,51,40,30.38,30.32,30.25,10,10,5,24,11,29,0.00,5,,39
2012-10-5,39,36,33,28,26,19,81,68,52,30.33,30.26,30.17,10,10,9,17,11,23,0.00,7,,83
2012-10-6,39,36,33,30,27,23,87,73,56,30.32,30.29,30.24,10,9,4,18,9,25,0.00,8,,84
2012-10-7,57,39,21,28,19,14,86,52,20,30.26,30.14,30.05,10,10,9,10,3,16,0.00,1,,226
2012-10-8,71,47,23,27,18,12,80,43,11,30.05,29.94,29.83,10,10,9,10,3,,0.00,0,,34
2012-10-9,48,40,32,36,32,21,81,67,46,30.21,30.09,29.86,10,10,8,16,6,25,0.00,5,,95
2012-10-10,57,42,26,37,31,21,93,69,44,30.20,30.09,29.99,10,8,3,7,3,,0.00,0,,321
2012-10-11,62,48,35,36,32,27,87,59,34,30.29,30.14,30.00,10,8,3,17,5,20,0.00,0,,70
2012-10-12,55,42,30,39,31,25,80,65,44,30.27,30.08,29.89,10,9,5,12,5,,0.00,1,,30
2012-10-13,60,53,46,45,42,39,82,70,52,30.13,29.94,29.85,10,10,9,22,10,29,0.18,7,,328
2012-10-14,69,55,41,43,37,34,82,57,27,30.29,30.20,30.13,10,10,9,13,7,,0.00,2,,267
2012-10-15,77,55,33,41,34,28,87,52,18,30.16,30.00,29.88,10,10,10,13,3,,0.00,0,,280
2012-10-16,77,60,42,43,33,28,66,39,17,29.93,29.76,29.54,10,10,10,37,8,51,0.00,1,,254
2012-10-17,57,47,37,25,14,9,53,25,14,30.03,29.90,29.80,10,10,10,29,20,38,0.00,0,,328
2012-10-18,66,45,24,21,16,12,74,38,12,30.12,30.07,29.99,10,10,10,25,10,34,0.00,0,,296
2012-10-19,71,48,26,30,24,16,69,44,17,30.11,29.97,29.86,10,10,9,8,3,,0.00,0,,264
2012-10-20,73,54,35,36,28,23,70,45,15,29.87,29.78,29.69,10,10,8,14,4,,0.00,0,,322
2012-10-21,71,52,33,36,31,25,70,49,25,29.96,29.84,29.73,10,10,9,22,6,26,0.00,0,,79
2012-10-22,66,49,32,39,34,25,87,66,37,29.96,29.86,29.73,10,10,2,14,7,16,0.00,1,,37
2012-10-23,77,52,28,39,29,19,87,46,12,29.92,29.75,29.68,10,10,2,25,6,38,0.00,0,,29
2012-10-24,48,39,30,37,32,25,93,69,53,30.07,29.92,29.81,10,8,1,24,9,30,0.21,7,,22
2012-10-25,37,32,26,30,26,23,93,80,65,30.29,30.20,30.09,10,8,1,10,4,,0.02,6,,118
2012-10-26,35,28,21,27,24,18,93,80,65,30.47,30.34,30.18,10,8,0,12,6,,0.09,4,,119
2012-10-27,44,35,26,30,26,21,86,72,49,30.17,30.13,30.08,10,9,5,13,5,,0.00,2,,111
2012-10-28,55,42,28,37,31,25,87,74,47,30.14,30.08,30.02,10,9,5,8,3,,0.00,1,,61
2012-10-29,66,48,30,46,35,27,93,71,35,30.14,30.10,30.07,10,9,3,15,3,18,0.00,0,,331
2012-10-30,69,51,33,39,34,28,87,60,21,30.18,30.13,30.07,10,10,9,10,6,,0.00,0,,209
2012-10-31,71,50,30,37,32,27,87,59,19,30.18,30.14,30.10,10,10,10,9,4,,0.00,0,,301